Easton, United Kingdom
Current Conditions -  °F | °C
As of 11:20 PM on Friday 28 Nov 2014 (Local Time) from EGHH Reporting Station
Clear Clear  
Wind Chill: 50°   Ceiling: Unl
Heat Index: 50°   Visibility: 6mi
Dew Point: 48°   Wind: 8mph
Humidity: 94%   Direction: 70°ENE
Pressure: 29.65"   Gusts: NA
Location:  50.53°N, 2.45°W
Report Text: EGHH 282320Z 07007KT CAVOK 10/09 Q1004
Loading
Personal Weather Stations






























Interactive Weather Map New forecast layout! Learn more

10-Day Weather Forecast

Advertisements
Track Severe Weather on mobile